Terminal Aerodrome Forecast
Issued by NWS Wilmington, OH

Current Version | Previous Version | Text Only | Print | Product List | Glossary Off
Versions: 1 2 3 4 5 6 7 8 9 10 11 12 13 14 15 16 17

000
FTUS41 KILN 190500
TAFDAY
TAF
KDAY 190538Z 1906/2006 29004KT P6SM OVC025
      TEMPO 1906/1908 OVC018
     FM191300 32005KT P6SM BKN025
      TEMPO 1913/1915 SCT022 BKN035
     FM192000 01003KT P6SM OVC035=

USA.gov is the U.S. government's official web portal to all federal, state and local government web resources and services.